TimeCST,TemperatureF,Dew PointF,Humidity,Sea Level PressureIn,VisibilityMPH,Wind Direction,Wind SpeedMPH,Gust SpeedMPH,PrecipitationIn,Events,Conditions,WindDirDegrees,DateUTC
12:53 AM,51.1,37.9,61,30.35,10.0,SSE,5.8,-,N/A,,Overcast,150,2013-11-05 06:53:00
1:53 AM,52.0,37.0,57,30.35,10.0,South,6.9,-,N/A,,Overcast,170,2013-11-05 07:53:00
2:53 AM,50.0,37.0,61,30.35,10.0,SSE,3.5,-,N/A,,Overcast,150,2013-11-05 08:53:00
3:53 AM,50.0,36.0,59,30.35,10.0,SSE,6.9,-,N/A,,Overcast,150,2013-11-05 09:53:00
4:53 AM,50.0,36.0,59,30.36,10.0,SE,3.5,-,N/A,,Overcast,140,2013-11-05 10:53:00
5:53 AM,48.9,37.0,64,30.37,10.0,Calm,Calm,-,N/A,,Mostly Cloudy,0,2013-11-05 11:53:00
6:53 AM,50.0,36.0,59,30.37,10.0,ESE,5.8,-,N/A,,Mostly Cloudy,120,2013-11-05 12:53:00
7:53 AM,52.0,37.0,57,30.39,10.0,ESE,4.6,-,N/A,,Mostly Cloudy,120,2013-11-05 13:53:00
8:53 AM,59.0,36.0,42,30.40,10.0,SSE,5.8,-,N/A,,Mostly Cloudy,150,2013-11-05 14:53:00
9:53 AM,60.1,36.0,41,30.39,10.0,South,10.4,-,N/A,,Mostly Cloudy,180,2013-11-05 15:53:00
10:53 AM,63.0,37.0,38,30.37,10.0,SSE,4.6,-,N/A,,Mostly Cloudy,150,2013-11-05 16:53:00
11:53 AM,68.0,39.0,35,30.33,10.0,ESE,5.8,-,N/A,,Mostly Cloudy,120,2013-11-05 17:53:00
12:53 PM,69.1,41.0,36,30.30,10.0,SE,6.9,-,N/A,,Mostly Cloudy,140,2013-11-05 18:53:00
1:53 PM,70.0,41.0,35,30.28,10.0,South,13.8,-,N/A,,Scattered Clouds,180,2013-11-05 19:53:00
2:53 PM,70.0,41.0,35,30.26,10.0,South,9.2,-,N/A,,Mostly Cloudy,180,2013-11-05 20:53:00
3:53 PM,68.0,42.1,39,30.26,10.0,South,11.5,-,N/A,,Scattered Clouds,190,2013-11-05 21:53:00
4:53 PM,63.0,42.1,46,30.26,10.0,SSE,6.9,-,N/A,,Scattered Clouds,160,2013-11-05 22:53:00
5:53 PM,59.0,41.0,51,30.26,10.0,South,4.6,-,N/A,,Partly Cloudy,170,2013-11-05 23:53:00
6:53 PM,59.0,42.1,53,30.26,10.0,South,3.5,-,N/A,,Clear,180,2013-11-06 00:53:00
7:53 PM,55.9,42.1,60,30.26,10.0,SSE,3.5,-,N/A,,Clear,160,2013-11-06 01:53:00
8:53 PM,54.0,42.1,64,30.26,10.0,SSE,4.6,-,N/A,,Clear,150,2013-11-06 02:53:00
9:53 PM,53.1,42.1,66,30.25,10.0,SSE,3.5,-,N/A,,Clear,160,2013-11-06 03:53:00
10:53 PM,54.0,41.0,62,30.24,10.0,Calm,Calm,-,N/A,,Clear,0,2013-11-06 04:53:00
11:53 PM,54.0,41.0,62,30.25,10.0,SSE,3.5,-,N/A,,Overcast,160,2013-11-06 05:53:00